Time;durP1;ratioP1;P1;durP2;ratioP2;P2;SDS_P1;SDS_P2;PMS_P1;PMS_P2;Temp;Humidity;BMP_temperature;BMP_pressure;BME280_temperature;BME280_humidity;BME280_pressure;Samples;Min_cycle;Max_cycle;Signal;HPM_P1;HPM_P2
2022/10/21 00:01:01;;;;;;;38.38;14.05;;;;;;;6.30;87.51;100766.28;4904387;28;20054;-64
2022/10/21 00:03:44;;;;;;;37.08;15.27;;;;;;;6.50;86.60;100779.44;4934864;28;20048;-63
2022/10/21 00:06:45;;;;;;;40.85;14.98;;;;;;;6.66;85.70;100777.00;4913194;28;20056;-64
2022/10/21 00:09:39;;;;;;;35.67;15.00;;;;;;;6.80;84.79;100773.63;4945500;28;20097;-63
2022/10/21 00:12:13;;;;;;;57.08;18.30;;;;;;;6.94;84.09;100776.28;4918821;28;20047;-64
2022/10/21 00:15:12;;;;;;;56.97;17.45;;;;;;;6.99;83.56;100759.00;4914687;28;20144;-64
2022/10/21 00:17:51;;;;;;;54.85;21.05;;;;;;;7.18;83.52;100776.44;4923275;28;21944;-64
2022/10/21 00:20:45;;;;;;;52.03;18.27;;;;;;;7.30;83.07;100771.31;4894858;28;20066;-64
2022/10/21 00:23:24;;;;;;;56.22;20.38;;;;;;;7.39;82.15;100759.22;4927808;28;20107;-64
2022/10/21 00:26:11;;;;;;;55.60;19.95;;;;;;;7.03;81.94;100677.63;4917018;28;20055;-63
2022/10/21 00:29:08;;;;;;;62.63;19.77;;;;;;;7.53;81.98;100760.16;4941369;28;20083;-63
2022/10/21 00:31:56;;;;;;;43.35;18.10;;;;;;;7.62;81.45;100760.19;4936211;28;20056;-64
2022/10/21 00:34:36;;;;;;;62.45;22.05;;;;;;;7.77;81.54;100762.84;4926513;28;20193;-64
2022/10/21 00:37:20;;;;;;;47.03;21.02;;;;;;;7.92;81.76;100761.16;4867056;28;20064;-64
2022/10/21 00:40:03;;;;;;;41.38;19.70;;;;;;;7.93;81.46;100736.88;4935822;28;20246;-64
2022/10/21 00:42:55;;;;;;;50.92;20.40;;;;;;;8.20;80.60;100755.13;4918754;28;20372;-64
2022/10/21 00:45:38;;;;;;;69.88;21.90;;;;;;;8.44;80.83;100761.25;4854216;28;20043;-63
2022/10/21 00:48:38;;;;;;;69.93;21.95;;;;;;;8.42;80.16;100721.34;4900190;28;20115;-66
2022/10/21 00:51:28;;;;;;;58.97;18.35;;;;;;;8.79;79.03;100752.56;4842269;28;20115;-66
2022/10/21 00:54:13;;;;;;;39.65;16.35;;;;;;;9.06;77.41;100762.94;4916215;28;20056;-64
2022/10/21 00:56:49;;;;;;;33.05;15.48;;;;;;;8.60;75.62;100648.38;4920367;28;20070;-64
2022/10/21 00:59:46;;;;;;;44.00;15.90;;;;;;;9.38;73.77;100754.13;4934555;28;20128;-63
2022/10/21 01:02:33;;;;;;;30.00;14.30;;;;;;;9.57;73.30;100748.88;4937959;28;20062;-64
2022/10/21 01:05:15;;;;;;;29.08;15.10;;;;;;;9.77;71.94;100741.81;4930517;28;20064;-64
2022/10/21 01:11:17;;;;;;;30.50;13.50;;;;;;;10.47;69.67;100750.06;4910683;28;20112;-64
2022/10/21 01:14:26;;;;;;;25.80;11.73;;;;;;;10.77;66.88;100739.34;4916720;28;20048;-64
2022/10/21 01:17:20;;;;;;;25.50;12.32;;;;;;;10.95;65.75;100738.28;4937759;28;20056;-63
2022/10/21 01:21:11;;;;;;;24.67;11.77;;;;;;;11.16;65.43;100731.97;4921375;28;20048;-64
2022/10/21 01:28:06;;;;;;;21.20;11.15;;;;;;;11.62;63.10;100734.00;4856697;28;20318;-63
2022/10/21 01:31:07;;;;;;;22.52;10.82;;;;;;;11.82;61.66;100738.13;4842117;28;20052;-63
2022/10/21 01:34:18;;;;;;;19.13;10.90;;;;;;;11.93;60.29;100715.31;4909871;28;20045;-63
2022/10/21 01:37:06;;;;;;;21.42;10.25;;;;;;;11.99;60.41;100717.81;4905891;28;20076;-63
2022/10/21 01:40:03;;;;;;;22.50;9.77;;;;;;;12.02;59.32;100691.59;4895930;28;20048;-64
2022/10/21 01:42:58;;;;;;;22.30;10.27;;;;;;;11.89;58.93;100655.16;4888983;28;20095;-63
2022/10/21 01:46:00;;;;;;;27.80;10.60;;;;;;;12.22;57.86;100713.97;4841131;28;20331;-64
2022/10/21 01:48:53;;;;;;;19.23;9.38;;;;;;;12.23;57.14;100707.84;4790635;28;20048;-64
2022/10/21 01:51:38;;;;;;;20.50;10.70;;;;;;;12.26;57.61;100702.59;4885524;28;20298;-63
2022/10/21 01:54:32;;;;;;;19.70;9.70;;;;;;;12.30;56.44;100678.03;4896029;28;20045;-63
2022/10/21 01:57:07;;;;;;;23.60;9.60;;;;;;;12.38;56.70;100681.41;4885530;28;20049;-63
2022/10/21 01:59:59;;;;;;;24.55;9.73;;;;;;;12.48;58.09;100677.75;4922446;28;20066;-64
2022/10/21 02:02:57;;;;;;;21.25;9.25;;;;;;;12.58;56.23;100677.56;4938454;28;20055;-63
2022/10/21 02:05:46;;;;;;;21.52;9.77;;;;;;;12.65;55.80;100673.94;4924230;28;20248;-63
2022/10/21 02:08:33;;;;;;;17.73;9.18;;;;;;;12.72;55.63;100678.16;4920035;28;20044;-63
2022/10/21 02:11:20;;;;;;;19.13;8.35;;;;;;;12.69;55.59;100659.88;4946067;28;20213;-63
2022/10/21 02:14:20;;;;;;;;;;;;;;;12.87;49.90;100664.75;4906484;28;20327;-63
2022/10/21 02:16:58;;;;;;;7.88;5.30;;;;;;;12.91;49.35;100655.09;4928596;28;19958;-63
2022/10/21 02:19:45;;;;;;;8.45;5.40;;;;;;;12.94;48.50;100634.91;4951990;28;20041;-62
2022/10/21 02:25:45;;;;;;;14.15;5.35;;;;;;;12.60;46.00;100660.03;4934441;28;20040;-62
2022/10/21 02:28:51;;;;;;;11.10;5.35;;;;;;;12.43;44.28;100653.38;4929449;28;20082;-63
2022/10/21 02:35:00;;;;;;;9.90;4.93;;;;;;;12.67;45.28;100651.19;4940584;28;20044;-63
2022/10/21 02:41:30;;;;;;;11.93;5.03;;;;;;;12.99;44.28;100641.81;4917984;28;20153;-64
2022/10/21 02:44:30;;;;;;;6.45;4.00;;;;;;;13.05;44.86;100639.06;4931319;28;20109;-63
2022/10/21 02:47:12;;;;;;;8.10;4.75;;;;;;;13.17;44.78;100636.19;4919044;28;20041;-63
2022/10/21 02:49:51;;;;;;;7.40;4.60;;;;;;;13.22;41.32;100638.72;4884784;28;20506;-63
2022/10/21 02:52:47;;;;;;;7.43;4.65;;;;;;;13.16;42.00;100623.97;4883393;28;20429;-63
2022/10/21 02:55:31;;;;;;;8.35;4.45;;;;;;;13.12;42.03;100628.41;4899565;28;20216;-63
2022/10/21 02:58:41;;;;;;;9.70;4.82;;;;;;;13.14;43.25;100623.16;4869647;28;20299;-63
2022/10/21 03:01:21;;;;;;;7.57;4.38;;;;;;;13.11;41.70;100625.84;4872578;28;20258;-63
2022/10/21 03:04:17;;;;;;;12.57;4.40;;;;;;;13.15;41.92;100622.22;4939409;28;20278;-64
2022/10/21 03:06:56;;;;;;;9.75;4.30;;;;;;;13.06;40.14;100623.31;4890756;28;20354;-63
2022/10/21 03:09:41;;;;;;;7.82;4.00;;;;;;;12.97;39.28;100613.00;4970119;28;20040;-63
2022/10/21 03:12:19;;;;;;;11.52;3.92;;;;;;;12.98;39.32;100624.34;4927071;28;20051;-64
2022/10/21 03:15:18;;;;;;;11.55;3.42;;;;;;;12.93;38.49;100621.84;4899801;28;20056;-64
2022/10/21 03:18:00;;;;;;;6.30;3.30;;;;;;;12.83;37.91;100621.16;4913204;28;20678;-64
2022/10/21 03:20:40;;;;;;;11.55;3.85;;;;;;;12.82;40.74;100611.53;4876896;28;20044;-63
2022/10/21 03:23:32;;;;;;;12.85;3.67;;;;;;;12.86;39.57;100618.47;4903993;28;20037;-64
2022/10/21 03:26:20;;;;;;;7.45;4.32;;;;;;;12.83;39.52;100615.91;4911870;28;20056;-64
2022/10/21 03:28:59;;;;;;;11.25;4.15;;;;;;;12.55;39.73;100568.38;4899470;28;20043;-63
2022/10/21 03:32:03;;;;;;;13.68;4.40;;;;;;;12.78;41.79;100615.16;4905159;28;20064;-63
2022/10/21 03:34:48;;;;;;;8.25;4.25;;;;;;;12.73;41.46;100609.13;4929350;28;20132;-65
2022/10/21 03:37:26;;;;;;;6.57;4.45;;;;;;;12.68;40.64;100616.19;4922288;28;20041;-64
2022/10/21 03:40:07;;;;;;;8.20;3.90;;;;;;;12.56;41.07;100605.97;4927350;28;20279;-64
2022/10/21 03:42:45;;;;;;;11.13;3.90;;;;;;;12.44;41.77;100609.66;4891067;28;20469;-64
2022/10/21 03:45:22;;;;;;;6.88;3.53;;;;;;;12.32;41.59;100621.22;4922309;28;20053;-64
2022/10/21 03:48:13;;;;;;;6.05;3.92;;;;;;;12.30;42.23;100615.16;4919588;28;20056;-63
2022/10/21 03:50:53;;;;;;;7.15;4.53;;;;;;;12.38;42.92;100618.53;4894316;28;20045;-63
2022/10/21 03:53:27;;;;;;;10.07;4.03;;;;;;;12.03;44.19;100537.91;4947208;28;20051;-63
2022/10/21 03:56:14;;;;;;;8.05;4.03;;;;;;;12.55;43.94;100612.94;4919031;28;20328;-63
2022/10/21 03:59:32;;;;;;;7.35;4.53;;;;;;;12.56;43.90;100595.47;4930963;28;21296;-64
2022/10/21 04:02:13;;;;;;;6.35;3.92;;;;;;;12.64;42.83;100606.69;4909128;28;20094;-64
2022/10/21 04:05:17;;;;;;;8.07;3.72;;;;;;;12.63;43.43;100610.16;4913135;28;20049;-64
2022/10/21 04:10:53;;;;;;;7.03;4.05;;;;;;;12.68;43.28;100600.47;4935490;28;20047;-64
2022/10/21 04:13:31;;;;;;;8.20;4.03;;;;;;;12.69;43.71;100602.19;4933052;28;20064;-65
2022/10/21 04:16:28;;;;;;;5.35;3.75;;;;;;;12.64;43.17;100589.19;4932679;28;20044;-64
2022/10/21 04:19:08;;;;;;;7.18;3.90;;;;;;;12.70;43.56;100594.31;4934807;28;20065;-65
2022/10/21 04:22:22;;;;;;;5.90;3.90;;;;;;;12.64;42.81;100593.56;4924647;28;20047;-64
2022/10/21 04:25:15;;;;;;;7.05;4.65;;;;;;;12.65;43.69;100588.28;4929141;28;20060;-64
2022/10/21 04:28:03;;;;;;;6.35;4.10;;;;;;;12.51;44.14;100557.09;4932001;28;20060;-63
2022/10/21 04:31:17;;;;;;;5.78;3.92;;;;;;;12.67;43.31;100588.25;4914041;28;20056;-63
2022/10/21 04:34:00;;;;;;;10.27;4.78;;;;;;;12.64;42.59;100583.09;4824812;28;20100;-63
2022/10/21 04:36:34;;;;;;;6.72;4.18;;;;;;;12.61;42.92;100588.38;4914270;28;20049;-63
2022/10/21 04:39:27;;;;;;;8.52;4.78;;;;;;;12.60;42.41;100589.25;4929849;28;20114;-63
2022/10/21 04:42:05;;;;;;;9.20;5.00;;;;;;;12.59;42.65;100584.94;4921054;28;20039;-63
2022/10/21 04:47:39;;;;;;;9.70;4.63;;;;;;;12.34;40.67;100585.38;4912465;28;20458;-63
2022/10/21 04:50:39;;;;;;;8.88;5.05;;;;;;;12.27;42.18;100584.63;4915520;28;21102;-64
2022/10/21 04:53:28;;;;;;;7.97;5.10;;;;;;;12.14;40.11;100577.03;4931024;28;20048;-63
2022/10/21 04:56:18;;;;;;;8.73;5.28;;;;;;;12.11;41.49;100587.56;4918713;28;20084;-64
2022/10/21 04:59:07;;;;;;;8.32;5.35;;;;;;;12.14;41.17;100587.50;4891890;28;20078;-64
2022/10/21 05:02:02;;;;;;;10.25;6.03;;;;;;;12.15;42.04;100584.00;4910697;28;20032;-65
2022/10/21 05:04:49;;;;;;;9.40;4.90;;;;;;;11.88;42.16;100539.03;4907364;28;20043;-64
2022/10/21 05:08:04;;;;;;;10.25;6.18;;;;;;;12.11;42.40;100579.72;4898821;28;20048;-63
2022/10/21 05:10:57;;;;;;;11.15;5.70;;;;;;;12.14;40.73;100590.13;4896082;28;20095;-64
2022/10/21 05:13:40;;;;;;;;;;;;;;;12.11;42.20;100590.19;4930054;28;20054;-64
2022/10/21 05:16:20;;;;;;;7.05;4.95;;;;;;;12.09;42.05;100593.69;4913335;28;19945;-64
2022/10/21 05:19:00;;;;;;;10.15;6.00;;;;;;;12.08;42.39;100599.81;4940159;28;20060;-62
2022/10/21 05:22:00;;;;;;;9.93;5.43;;;;;;;12.05;43.43;100599.84;4921884;28;20048;-64
2022/10/21 05:24:53;;;;;;;10.05;5.53;;;;;;;12.01;43.89;100592.97;4925597;28;20160;-64
2022/10/21 05:27:51;;;;;;;10.20;6.45;;;;;;;11.97;44.84;100601.75;4940863;28;20053;-63
2022/10/21 05:30:38;;;;;;;9.93;6.13;;;;;;;11.87;45.10;100584.47;4899543;28;20040;-64
2022/10/21 05:33:32;;;;;;;12.25;6.28;;;;;;;11.91;44.87;100601.88;4919336;28;20107;-62
2022/10/21 05:36:18;;;;;;;8.57;6.18;;;;;;;11.89;45.43;100593.16;4929330;28;20049;-63
2022/10/21 05:39:11;;;;;;;8.50;6.13;;;;;;;11.89;45.75;100598.41;4917066;28;20059;-63
2022/10/21 05:42:11;;;;;;;10.57;5.72;;;;;;;11.83;45.30;100601.06;4929371;28;20055;-63
2022/10/21 05:45:01;;;;;;;11.73;6.40;;;;;;;11.82;45.76;100607.22;4925224;28;20064;-63
2022/10/21 05:48:03;;;;;;;10.63;6.35;;;;;;;11.79;45.75;100602.03;4890889;28;20054;-62
2022/10/21 05:50:46;;;;;;;8.85;6.18;;;;;;;11.81;46.97;100595.03;4819648;28;20114;-62
2022/10/21 05:53:42;;;;;;;9.07;6.00;;;;;;;11.77;45.99;100598.56;4834464;28;20046;-63
2022/10/21 05:59:59;;;;;;;11.35;6.30;;;;;;;11.67;47.07;100600.47;4839848;28;20248;-64
2022/10/21 06:05:49;;;;;;;9.40;6.53;;;;;;;11.57;46.60;100596.25;4814940;28;20045;-64
2022/10/21 06:08:32;;;;;;;10.75;6.07;;;;;;;11.54;47.68;100602.41;4832952;28;20061;-64
2022/10/21 06:11:16;;;;;;;;;;;;;;;11.50;46.63;100600.69;4813203;28;20049;-63
2022/10/21 06:14:00;;;;;;;7.30;5.28;;;;;;;11.46;46.93;100604.28;4805558;28;20226;-64
2022/10/21 06:16:45;;;;;;;15.32;6.28;;;;;;;11.41;46.85;100595.63;4834224;28;20046;-64
2022/10/21 06:20:09;;;;;;;12.23;6.25;;;;;;;11.33;46.85;100608.81;4797231;28;20069;-65
2022/10/21 06:22:55;;;;;;;8.98;5.43;;;;;;;11.04;46.73;100575.19;4761750;28;20085;-64
2022/10/21 06:28:27;;;;;;;11.25;6.00;;;;;;;11.07;47.65;100600.44;4854701;28;20350;-64
2022/10/21 06:31:20;;;;;;;9.95;6.55;;;;;;;11.00;47.77;100586.56;4877017;28;20064;-63
2022/10/21 06:34:14;;;;;;;10.35;6.55;;;;;;;10.93;47.59;100598.00;4875413;28;20053;-64
2022/10/21 06:36:54;;;;;;;11.85;6.10;;;;;;;10.85;47.67;100605.06;4914937;28;20063;-63
2022/10/21 06:39:41;;;;;;;16.48;6.68;;;;;;;10.73;48.29;100612.19;4932191;28;20058;-63
2022/10/21 06:42:26;;;;;;;15.95;8.10;;;;;;;10.64;48.76;100611.44;4944965;28;20114;-63
2022/10/21 06:45:08;;;;;;;9.65;6.15;;;;;;;10.56;49.51;100616.75;4934166;28;20102;-63
2022/10/21 06:47:46;;;;;;;13.35;7.13;;;;;;;10.44;49.34;100619.47;4959494;28;20060;-63
2022/10/21 06:50:27;;;;;;;14.80;7.65;;;;;;;10.31;50.25;100624.81;4864545;28;20036;-63
2022/10/21 06:56:11;;;;;;;9.23;5.82;;;;;;;10.05;51.19;100626.75;4884657;28;20048;-63
2022/10/21 06:58:56;;;;;;;8.93;5.88;;;;;;;9.92;51.36;100637.28;4943782;28;20377;-64
2022/10/21 07:01:59;;;;;;;14.95;7.13;;;;;;;9.81;52.25;100636.53;4939730;28;20055;-64
2022/10/21 07:04:38;;;;;;;10.82;6.45;;;;;;;9.69;52.33;100640.06;4928570;28;20276;-63
2022/10/21 07:07:22;;;;;;;14.90;7.63;;;;;;;9.57;53.03;100644.50;4907156;28;20082;-62
2022/10/21 07:10:09;;;;;;;12.85;6.90;;;;;;;9.21;53.94;100604.72;4891339;28;20043;-64
2022/10/21 07:13:03;;;;;;;16.20;8.23;;;;;;;9.36;54.39;100645.47;4921465;28;20100;-64
2022/10/21 07:15:40;;;;;;;10.57;6.60;;;;;;;9.27;54.62;100654.22;4936513;28;20044;-64
2022/10/21 07:18:31;;;;;;;8.98;5.93;;;;;;;9.15;55.53;100649.06;4925271;28;20065;-63
2022/10/21 07:21:21;;;;;;;10.80;5.70;;;;;;;9.00;55.30;100650.84;4916508;28;20049;-64
2022/10/21 07:24:29;;;;;;;12.48;5.80;;;;;;;8.92;56.49;100650.03;4898458;28;20130;-63
2022/10/21 07:27:23;;;;;;;11.95;6.00;;;;;;;8.80;56.28;100647.47;4910986;28;20052;-63
2022/10/21 07:30:08;;;;;;;13.45;6.45;;;;;;;8.64;57.33;100631.00;4922895;28;20063;-63
2022/10/21 07:32:53;;;;;;;8.70;5.45;;;;;;;8.63;57.28;100637.94;4934061;28;20355;-63
2022/10/21 07:35:34;;;;;;;12.45;5.95;;;;;;;8.54;58.24;100637.13;4923472;28;20060;-63
2022/10/21 07:38:26;;;;;;;13.45;6.10;;;;;;;8.45;58.99;100632.78;4928291;28;20122;-63
2022/10/21 07:41:10;;;;;;;19.15;6.30;;;;;;;8.46;59.96;100634.50;4878278;28;20058;-62
2022/10/21 07:43:59;;;;;;;11.32;6.70;;;;;;;8.44;59.90;100631.06;4893304;28;20103;-63
2022/10/21 07:46:44;;;;;;;11.27;7.07;;;;;;;8.40;60.03;100634.53;4911114;28;20087;-63
2022/10/21 07:49:25;;;;;;;13.10;6.82;;;;;;;8.33;59.99;100632.75;4920595;28;20051;-62
2022/10/21 07:52:07;;;;;;;13.90;6.30;;;;;;;8.36;59.60;100637.97;4894097;28;20138;-63
2022/10/21 07:55:04;;;;;;;12.40;6.30;;;;;;;8.32;59.54;100637.09;4936290;28;20042;-64
2022/10/21 07:57:53;;;;;;;8.75;6.53;;;;;;;8.28;59.75;100634.50;4895128;28;20062;-64
2022/10/21 08:01:02;;;;;;;12.10;6.20;;;;;;;8.20;59.85;100648.38;4895136;28;20045;-65
2022/10/21 08:03:45;;;;;;;12.55;6.05;;;;;;;8.09;59.42;100642.34;4892462;28;20050;-64
2022/10/21 08:06:29;;;;;;;12.93;5.55;;;;;;;7.89;59.95;100641.47;4917212;28;20103;-65
2022/10/21 08:09:08;;;;;;;16.88;7.53;;;;;;;7.81;60.63;100653.59;4932743;28;20090;-65
2022/10/21 08:11:51;;;;;;;12.90;8.07;;;;;;;7.38;60.84;100593.72;4916342;28;20048;-65
2022/10/21 08:14:33;;;;;;;13.25;7.47;;;;;;;7.66;61.67;100639.72;4922812;28;20100;-65
2022/10/21 08:17:46;;;;;;;23.17;6.93;;;;;;;7.63;62.08;100644.88;4886858;28;20048;-65
2022/10/21 08:20:47;;;;;;;15.30;6.72;;;;;;;7.57;63.00;100639.69;4898983;28;20048;-64
2022/10/21 08:23:29;;;;;;;11.40;6.50;;;;;;;7.50;63.26;100632.72;4924748;28;20036;-65
2022/10/21 08:26:08;;;;;;;11.88;6.68;;;;;;;7.43;63.84;100625.78;4915814;28;20063;-65
2022/10/21 08:28:47;;;;;;;10.80;6.43;;;;;;;7.44;64.19;100630.09;4932459;28;20058;-66
2022/10/21 08:31:30;;;;;;;17.42;7.07;;;;;;;7.35;64.72;100624.03;4882555;28;20055;-66
2022/10/21 08:34:15;;;;;;;13.73;7.40;;;;;;;7.42;64.69;100629.25;4924458;28;20049;-66
2022/10/21 08:37:23;;;;;;;13.52;7.28;;;;;;;7.31;64.92;100627.50;4949869;28;20063;-66
2022/10/21 08:40:03;;;;;;;13.20;6.53;;;;;;;7.22;65.21;100622.28;4898704;28;20508;-66
2022/10/21 08:42:44;;;;;;;10.75;6.00;;;;;;;7.13;65.88;100617.03;4930865;28;20042;-66
2022/10/21 08:45:46;;;;;;;12.43;6.45;;;;;;;6.99;66.35;100603.13;4923356;28;20161;-65
2022/10/21 08:48:27;;;;;;;9.40;6.50;;;;;;;7.03;66.69;100625.66;4936326;28;20048;-66
2022/10/21 08:51:23;;;;;;;11.50;6.40;;;;;;;7.03;67.15;100625.66;4928654;28;20074;-66
2022/10/21 08:54:26;;;;;;;10.68;6.50;;;;;;;7.02;66.96;100610.94;4902746;28;20056;-64
2022/10/21 08:57:05;;;;;;;15.68;7.25;;;;;;;7.03;66.98;100610.06;4916537;28;20427;-65
2022/10/21 08:59:57;;;;;;;11.32;6.68;;;;;;;7.07;66.66;100606.63;4921195;28;20124;-65
2022/10/21 09:02:46;;;;;;;8.23;5.90;;;;;;;7.13;66.35;100596.25;4890454;28;20045;-65
2022/10/21 09:05:40;;;;;;;10.23;6.18;;;;;;;7.15;65.89;100604.91;4890185;28;20045;-65
2022/10/21 09:08:36;;;;;;;10.60;6.28;;;;;;;7.27;64.92;100604.94;4891692;28;20045;-65
2022/10/21 09:11:29;;;;;;;8.43;5.80;;;;;;;7.33;64.58;100599.75;4909376;28;20624;-66
2022/10/21 09:14:23;;;;;;;9.27;6.63;;;;;;;7.37;64.35;100594.59;4894359;28;20266;-65
2022/10/21 09:17:04;;;;;;;34.42;22.10;;;;;;;7.40;63.97;100579.84;4899927;28;20057;-64
2022/10/21 09:22:55;;;;;;;8.55;5.78;;;;;;;7.31;65.28;100565.13;4904105;28;20052;-64
2022/10/21 09:25:54;;;;;;;11.23;5.93;;;;;;;7.18;65.65;100558.13;4896449;28;20037;-65
2022/10/21 09:28:33;;;;;;;11.13;6.32;;;;;;;7.10;66.35;100544.28;4909407;28;20128;-65
2022/10/21 09:31:31;;;;;;;8.90;5.75;;;;;;;7.11;66.71;100562.47;4902989;28;20118;-65
2022/10/21 09:34:16;;;;;;;8.13;5.85;;;;;;;7.16;67.44;100570.25;4906493;28;20178;-65
2022/10/21 09:37:02;;;;;;;9.07;5.90;;;;;;;7.22;67.69;100567.69;4875122;28;20045;-65
2022/10/21 09:39:52;;;;;;;;;;;;;;;7.35;67.49;100582.44;4900817;28;20048;-66
2022/10/21 09:42:41;;;;;;;9.20;5.97;;;;;;;7.49;67.92;100599.81;4882559;28;19936;-66
2022/10/21 09:45:36;;;;;;;12.63;6.25;;;;;;;7.56;67.03;100591.13;4842135;28;20054;-66
2022/10/21 09:48:45;;;;;;;8.80;6.20;;;;;;;7.72;66.32;100602.44;4913409;28;20061;-66
2022/10/21 09:51:44;;;;;;;13.73;7.32;;;;;;;7.66;67.27;100607.59;4911397;28;20049;-65
2022/10/21 09:54:26;;;;;;;16.50;7.97;;;;;;;7.61;68.48;100609.34;4909429;28;20120;-65
2022/10/21 09:57:25;;;;;;;17.25;8.88;;;;;;;7.58;68.94;100615.41;4900996;28;20051;-65
2022/10/21 10:00:18;;;;;;;17.35;8.07;;;;;;;7.48;68.95;100603.25;4909859;28;20093;-65
2022/10/21 10:03:04;;;;;;;15.48;8.90;;;;;;;7.34;68.66;100588.50;4931951;28;20047;-65
2022/10/21 10:05:49;;;;;;;13.23;8.00;;;;;;;7.29;68.45;100581.56;4890730;28;20213;-65
2022/10/21 10:08:44;;;;;;;15.32;7.20;;;;;;;7.10;68.79;100573.72;4934898;28;20056;-65
2022/10/21 10:14:27;;;;;;;14.85;7.90;;;;;;;6.58;69.41;100494.75;4924171;28;20053;-65
2022/10/21 10:17:49;;;;;;;13.20;7.97;;;;;;;7.11;69.44;100571.97;4927530;28;20040;-65
2022/10/21 10:20:32;;;;;;;19.55;7.93;;;;;;;7.10;70.24;100570.25;4902587;28;20043;-65
2022/10/21 10:23:23;;;;;;;16.17;7.72;;;;;;;7.02;70.91;100561.56;4913958;28;20079;-65
2022/10/21 10:26:02;;;;;;;12.85;7.85;;;;;;;6.86;72.10;100551.16;4920374;28;20251;-65
2022/10/21 10:28:51;;;;;;;16.42;9.40;;;;;;;7.19;72.56;100606.69;4917648;28;20060;-65
2022/10/21 10:31:53;;;;;;;21.83;12.30;;;;;;;7.10;72.98;100593.63;4933984;28;20040;-65
2022/10/21 10:34:41;;;;;;;21.85;12.80;;;;;;;7.14;73.01;100598.00;4924379;28;20119;-65
2022/10/21 10:41:10;;;;;;;39.05;24.30;;;;;;;7.00;73.04;100603.13;4936873;28;20044;-64
2022/10/21 10:43:59;;;;;;;37.60;19.65;;;;;;;6.82;74.02;100572.75;4924183;28;20096;-65
2022/10/21 10:46:51;;;;;;;29.27;19.25;;;;;;;7.05;74.34;100614.41;4934352;28;20134;-64
2022/10/21 10:49:45;;;;;;;82.72;51.58;;;;;;;7.01;74.05;100611.78;4916106;28;20060;-65
2022/10/21 10:52:29;;;;;;;61.83;40.78;;;;;;;7.06;74.48;100613.56;4887408;28;20111;-64
2022/10/21 10:55:28;;;;;;;24.95;16.40;;;;;;;7.04;74.64;100601.41;4921616;28;20068;-64
2022/10/21 10:58:18;;;;;;;19.95;13.25;;;;;;;6.92;74.18;100591.84;4933240;28;20052;-64
2022/10/21 11:01:19;;;;;;;16.50;9.02;;;;;;;7.00;75.04;100604.88;4933675;28;20075;-65
2022/10/21 11:04:05;;;;;;;16.60;9.32;;;;;;;6.96;73.49;100592.72;4903650;28;20049;-64
2022/10/21 11:06:54;;;;;;;16.27;10.10;;;;;;;6.94;72.26;100578.84;4943823;28;20055;-64
2022/10/21 11:09:39;;;;;;;22.13;13.23;;;;;;;6.83;72.31;100576.22;4928204;28;20077;-65
2022/10/21 11:12:41;;;;;;;30.58;16.05;;;;;;;6.77;72.78;100582.25;4923301;28;20090;-65
2022/10/21 11:18:47;;;;;;;25.60;14.07;;;;;;;6.93;74.38;100577.13;4946457;28;20047;-65
2022/10/21 11:22:15;;;;;;;22.27;13.25;;;;;;;6.61;73.74;100531.13;4885961;28;20052;-65
2022/10/21 11:25:14;;;;;;;19.98;12.00;;;;;;;6.88;74.26;100575.38;4931437;28;20044;-65
2022/10/21 11:28:14;;;;;;;15.07;10.63;;;;;;;6.89;74.79;100561.53;4918643;28;20040;-65
2022/10/21 11:31:17;;;;;;;64.47;28.70;;;;;;;6.94;75.32;100565.84;4898789;28;20097;-65
2022/10/21 11:33:58;;;;;;;22.42;11.02;;;;;;;6.85;74.59;100564.97;4900696;28;20131;-65
2022/10/21 11:36:41;;;;;;;20.63;9.20;;;;;;;6.81;74.51;100563.22;4914236;28;20127;-65
2022/10/21 11:39:46;;;;;;;14.70;8.30;;;;;;;6.80;74.60;100582.28;4928891;28;20320;-64
2022/10/21 11:42:32;;;;;;;12.15;8.60;;;;;;;6.90;76.23;100614.34;4911295;28;20321;-65
2022/10/21 11:45:29;;;;;;;;;;;;;;;6.82;77.04;100616.91;4940926;28;20067;-64
2022/10/21 11:48:45;;;;;;;38.33;21.35;;;;;;;6.73;76.99;100601.28;4926601;28;19915;-65
2022/10/21 11:51:43;;;;;;;29.63;15.88;;;;;;;6.67;77.84;100598.66;4917342;28;20060;-64
2022/10/21 11:55:14;;;;;;;32.60;19.65;;;;;;;6.65;79.23;100587.41;4932703;28;20093;-64
2022/10/21 11:58:19;;;;;;;;;;;;;;;6.45;79.39;100564.78;4939075;28;20549;-63
2022/10/21 12:01:30;;;;;;;23.58;12.55;;;;;;;6.28;80.79;100556.06;4909896;28;19942;-63
2022/10/21 12:04:30;;;;;;;24.65;12.60;;;;;;;6.19;80.07;100540.41;4889946;28;20056;-64
2022/10/21 12:07:25;;;;;;;19.80;11.40;;;;;;;6.25;79.92;100540.47;4923482;28;20041;-65
2022/10/21 12:10:14;;;;;;;19.77;10.10;;;;;;;6.34;80.63;100540.53;4931340;28;20052;-64
2022/10/21 12:13:09;;;;;;;14.15;8.32;;;;;;;6.29;79.91;100525.78;4945338;28;20372;-65
2022/10/21 12:15:46;;;;;;;17.80;9.13;;;;;;;6.02;80.07;100486.72;4928206;28;20047;-65
2022/10/21 12:22:13;;;;;;;11.77;8.10;;;;;;;6.21;81.67;100524.00;4842978;28;20057;-64
2022/10/21 12:24:58;;;;;;;14.63;9.45;;;;;;;6.26;82.33;100531.81;4878095;28;20588;-64
2022/10/21 12:27:43;;;;;;;14.85;8.82;;;;;;;6.27;82.83;100528.38;4838372;28;20064;-64
2022/10/21 12:30:42;;;;;;;14.20;9.05;;;;;;;6.21;83.44;100512.75;4835950;28;20121;-64
2022/10/21 12:33:46;;;;;;;14.50;8.20;;;;;;;6.14;84.25;100505.78;4864214;28;20069;-63
2022/10/21 12:36:45;;;;;;;12.23;7.80;;;;;;;6.08;85.17;100496.25;4881473;28;20257;-63
2022/10/21 12:39:54;;;;;;;11.07;7.10;;;;;;;6.03;85.79;100478.06;4878403;28;20041;-63
2022/10/21 12:42:44;;;;;;;10.50;6.88;;;;;;;6.00;85.92;100478.06;4908909;28;20130;-63
2022/10/21 12:45:35;;;;;;;14.50;9.25;;;;;;;5.95;86.54;100474.56;4878716;28;20056;-63
2022/10/21 12:48:27;;;;;;;15.88;9.07;;;;;;;5.91;87.14;100472.78;4845561;28;20054;-62
2022/10/21 12:51:32;;;;;;;21.60;10.45;;;;;;;5.88;88.73;100477.94;4894689;28;20065;-63
2022/10/21 12:55:13;;;;;;;;;;;;;;;;;;;;;
2022/10/21 12:58:33;;;;;;;10.27;5.10;;;;;;;6.03;90.05;100461.66;4838093;28;20057;-64
2022/10/21 13:01:39;;;;;;;9.05;5.07;;;;;;;6.11;90.12;100453.91;4904779;28;20052;-63
2022/10/21 13:04:52;;;;;;;12.82;6.88;;;;;;;5.80;90.30;100404.44;4932053;28;20461;-62
2022/10/21 13:08:07;;;;;;;24.63;13.73;;;;;;;6.10;90.80;100452.19;4939329;28;20043;-62
2022/10/21 13:15:10;;;;;;;30.17;15.70;;;;;;;6.18;91.73;100442.69;4914477;28;20055;-62
2022/10/21 13:18:03;;;;;;;18.33;9.38;;;;;;;5.84;91.31;100382.81;4951527;28;20098;-63
2022/10/21 13:21:03;;;;;;;9.13;5.47;;;;;;;6.18;91.43;100434.91;4924802;28;20072;-62
2022/10/21 13:24:37;;;;;;;6.25;4.25;;;;;;;6.26;90.99;100440.97;4883672;28;20040;-63
2022/10/21 13:27:33;;;;;;;7.97;4.32;;;;;;;6.30;90.73;100444.47;4851519;28;20054;-64
2022/10/21 13:40:21;;;;;;;7.65;4.90;;;;;;;6.54;91.63;100459.25;4971479;27;20043;-63
2022/10/21 13:43:01;;;;;;;;;;;;;;;6.53;91.55;100458.41;4977202;27;20054;-62
2022/10/21 13:45:48;;;;;;;6.63;4.22;;;;;;;5.94;90.99;100363.03;4979228;27;20266;-61
2022/10/21 13:48:31;;;;;;;4.70;3.55;;;;;;;6.53;88.75;100447.16;4977436;27;20040;-62
2022/10/21 13:51:22;;;;;;;6.05;4.28;;;;;;;6.59;88.20;100447.16;4988120;27;20529;-61
2022/10/21 13:54:15;;;;;;;10.70;4.93;;;;;;;6.44;88.99;100412.53;4993793;27;20051;-61
2022/10/21 13:56:56;;;;;;;11.65;6.05;;;;;;;6.45;89.44;100423.75;4965030;27;20096;-61
2022/10/21 13:59:40;;;;;;;11.68;7.13;;;;;;;6.36;89.97;100414.19;4952912;27;20114;-61
2022/10/21 14:02:28;;;;;;;13.83;6.47;;;;;;;6.03;90.59;100363.94;4952126;27;20092;-61
2022/10/21 14:05:35;;;;;;;7.87;5.20;;;;;;;6.19;90.75;100392.53;4917761;27;20447;-61
2022/10/21 14:08:26;;;;;;;7.80;4.88;;;;;;;6.31;90.16;100402.94;4983299;27;20276;-61
2022/10/21 14:11:30;;;;;;;11.05;6.85;;;;;;;6.36;90.78;100398.63;5003746;27;20540;-62
2022/10/21 14:14:11;;;;;;;9.07;6.38;;;;;;;6.32;91.94;100399.50;4982646;27;20043;-61
2022/10/21 14:16:48;;;;;;;12.18;6.65;;;;;;;6.35;92.48;100396.91;4976954;27;20106;-61
2022/10/21 14:19:25;;;;;;;12.80;6.78;;;;;;;6.28;92.79;100374.41;4987160;27;20091;-62
2022/10/21 14:22:09;;;;;;;11.90;6.85;;;;;;;6.34;93.40;100384.81;4975825;27;20051;-62
2022/10/21 14:25:16;;;;;;;8.63;6.45;;;;;;;6.28;93.15;100384.78;4989980;27;20070;-62